sensor_id;sensor_type;location;lat;lon;timestamp;temperature;humidity
9271;DHT22;4673;53.458;9.940;2022-07-29T00:02:26;12.40;78.10
9271;DHT22;4673;53.458;9.940;2022-07-29T00:04:52;12.30;78.40
9271;DHT22;4673;53.458;9.940;2022-07-29T00:07:18;12.20;78.70
9271;DHT22;4673;53.458;9.940;2022-07-29T00:09:43;12.10;79.40
9271;DHT22;4673;53.458;9.940;2022-07-29T00:12:09;12.00;79.60
9271;DHT22;4673;53.458;9.940;2022-07-29T00:14:34;12.00;79.90
9271;DHT22;4673;53.458;9.940;2022-07-29T00:17:00;12.00;80.10
9271;DHT22;4673;53.458;9.940;2022-07-29T00:19:26;11.90;80.20
9271;DHT22;4673;53.458;9.940;2022-07-29T00:21:51;11.90;80.50
9271;DHT22;4673;53.458;9.940;2022-07-29T00:24:17;11.90;80.80
9271;DHT22;4673;53.458;9.940;2022-07-29T00:26:43;11.80;81.00
9271;DHT22;4673;53.458;9.940;2022-07-29T00:29:08;11.80;81.20
9271;DHT22;4673;53.458;9.940;2022-07-29T00:31:34;11.70;81.30
9271;DHT22;4673;53.458;9.940;2022-07-29T00:33:59;11.70;81.50
9271;DHT22;4673;53.458;9.940;2022-07-29T00:36:25;11.60;81.70
9271;DHT22;4673;53.458;9.940;2022-07-29T00:38:51;11.60;82.00
9271;DHT22;4673;53.458;9.940;2022-07-29T00:41:17;11.60;82.20
9271;DHT22;4673;53.458;9.940;2022-07-29T00:43:44;11.50;82.50
9271;DHT22;4673;53.458;9.940;2022-07-29T00:46:10;11.50;82.80
9271;DHT22;4673;53.458;9.940;2022-07-29T00:48:36;11.50;82.80
9271;DHT22;4673;53.458;9.940;2022-07-29T00:51:03;11.50;83.10
9271;DHT22;4673;53.458;9.940;2022-07-29T00:53:30;11.40;83.30
9271;DHT22;4673;53.458;9.940;2022-07-29T00:55:57;11.40;83.50
9271;DHT22;4673;53.458;9.940;2022-07-29T00:58:24;11.40;83.60
9271;DHT22;4673;53.458;9.940;2022-07-29T01:00:50;11.40;83.90
9271;DHT22;4673;53.458;9.940;2022-07-29T01:03:16;11.40;84.10
9271;DHT22;4673;53.458;9.940;2022-07-29T01:05:43;11.40;84.10
9271;DHT22;4673;53.458;9.940;2022-07-29T01:08:11;11.40;84.20
9271;DHT22;4673;53.458;9.940;2022-07-29T01:10:38;11.40;84.40
9271;DHT22;4673;53.458;9.940;2022-07-29T01:13:05;11.40;84.30
9271;DHT22;4673;53.458;9.940;2022-07-29T01:15:33;11.50;84.40
9271;DHT22;4673;53.458;9.940;2022-07-29T01:23:28;11.50;84.10
9271;DHT22;4673;53.458;9.940;2022-07-29T01:34:07;11.90;83.00
9271;DHT22;4673;53.458;9.940;2022-07-29T01:36:37;11.90;83.00
9271;DHT22;4673;53.458;9.940;2022-07-29T01:39:23;12.00;82.60
9271;DHT22;4673;53.458;9.940;2022-07-29T01:41:58;12.00;82.60
9271;DHT22;4673;53.458;9.940;2022-07-29T01:44:33;12.00;82.20
9271;DHT22;4673;53.458;9.940;2022-07-29T01:47:05;12.10;82.00
9271;DHT22;4673;53.458;9.940;2022-07-29T01:49:36;12.10;81.80
9271;DHT22;4673;53.458;9.940;2022-07-29T01:52:23;12.10;81.80
9271;DHT22;4673;53.458;9.940;2022-07-29T01:54:55;12.10;81.60
9271;DHT22;4673;53.458;9.940;2022-07-29T01:57:25;12.10;81.40
9271;DHT22;4673;53.458;9.940;2022-07-29T01:59:52;12.10;81.20
9271;DHT22;4673;53.458;9.940;2022-07-29T02:02:19;12.10;81.20
9271;DHT22;4673;53.458;9.940;2022-07-29T02:04:47;12.20;80.90
9271;DHT22;4673;53.458;9.940;2022-07-29T02:07:19;12.20;81.00
9271;DHT22;4673;53.458;9.940;2022-07-29T02:09:47;12.30;81.00
9271;DHT22;4673;53.458;9.940;2022-07-29T02:12:16;12.20;80.80
9271;DHT22;4673;53.458;9.940;2022-07-29T02:14:53;12.30;80.70
9271;DHT22;4673;53.458;9.940;2022-07-29T02:17:26;12.30;80.60
9271;DHT22;4673;53.458;9.940;2022-07-29T02:19:55;12.30;80.40
9271;DHT22;4673;53.458;9.940;2022-07-29T02:22:23;12.30;80.50
9271;DHT22;4673;53.458;9.940;2022-07-29T02:24:50;12.40;80.20
9271;DHT22;4673;53.458;9.940;2022-07-29T02:27:18;12.40;79.90
9271;DHT22;4673;53.458;9.940;2022-07-29T02:29:46;12.40;79.80
9271;DHT22;4673;53.458;9.940;2022-07-29T02:32:14;12.40;79.80
9271;DHT22;4673;53.458;9.940;2022-07-29T02:34:40;12.40;79.80
9271;DHT22;4673;53.458;9.940;2022-07-29T02:37:09;12.50;79.60
9271;DHT22;4673;53.458;9.940;2022-07-29T02:39:35;12.50;79.40
9271;DHT22;4673;53.458;9.940;2022-07-29T02:42:05;12.50;79.40
9271;DHT22;4673;53.458;9.940;2022-07-29T02:44:32;12.60;79.30
9271;DHT22;4673;53.458;9.940;2022-07-29T02:47:30;12.60;79.30
9271;DHT22;4673;53.458;9.940;2022-07-29T02:49:57;12.50;79.30
9271;DHT22;4673;53.458;9.940;2022-07-29T02:52:43;12.50;79.40
9271;DHT22;4673;53.458;9.940;2022-07-29T02:55:40;12.50;79.40
9271;DHT22;4673;53.458;9.940;2022-07-29T03:00:37;12.50;79.60
9271;DHT22;4673;53.458;9.940;2022-07-29T03:03:09;12.50;79.70
9271;DHT22;4673;53.458;9.940;2022-07-29T03:05:37;12.50;79.80
9271;DHT22;4673;53.458;9.940;2022-07-29T03:08:04;12.50;79.70
9271;DHT22;4673;53.458;9.940;2022-07-29T03:10:32;12.50;79.70
9271;DHT22;4673;53.458;9.940;2022-07-29T03:12:58;12.50;79.70
9271;DHT22;4673;53.458;9.940;2022-07-29T03:15:25;12.50;79.80
9271;DHT22;4673;53.458;9.940;2022-07-29T03:17:52;12.50;79.70
9271;DHT22;4673;53.458;9.940;2022-07-29T03:20:18;12.60;79.80
9271;DHT22;4673;53.458;9.940;2022-07-29T03:22:44;12.60;79.70
9271;DHT22;4673;53.458;9.940;2022-07-29T03:25:13;12.70;79.70
9271;DHT22;4673;53.458;9.940;2022-07-29T03:27:39;12.70;79.70
9271;DHT22;4673;53.458;9.940;2022-07-29T03:30:06;12.70;79.70
9271;DHT22;4673;53.458;9.940;2022-07-29T03:32:32;12.70;79.60
9271;DHT22;4673;53.458;9.940;2022-07-29T03:34:58;12.70;79.60
9271;DHT22;4673;53.458;9.940;2022-07-29T03:37:23;12.80;79.60
9271;DHT22;4673;53.458;9.940;2022-07-29T03:39:49;12.80;79.30
9271;DHT22;4673;53.458;9.940;2022-07-29T03:42:17;12.90;79.30
9271;DHT22;4673;53.458;9.940;2022-07-29T03:44:47;12.80;79.30
9271;DHT22;4673;53.458;9.940;2022-07-29T03:47:14;12.80;79.30
9271;DHT22;4673;53.458;9.940;2022-07-29T03:49:43;12.80;79.30
9271;DHT22;4673;53.458;9.940;2022-07-29T03:52:10;12.80;79.20
9271;DHT22;4673;53.458;9.940;2022-07-29T03:54:36;12.80;79.40
9271;DHT22;4673;53.458;9.940;2022-07-29T03:57:02;12.90;79.40
9271;DHT22;4673;53.458;9.940;2022-07-29T03:59:30;12.90;79.50
9271;DHT22;4673;53.458;9.940;2022-07-29T04:01:58;12.90;79.60
9271;DHT22;4673;53.458;9.940;2022-07-29T04:04:24;12.90;79.50
9271;DHT22;4673;53.458;9.940;2022-07-29T04:06:50;12.90;79.40
9271;DHT22;4673;53.458;9.940;2022-07-29T04:09:16;12.90;79.50
9271;DHT22;4673;53.458;9.940;2022-07-29T04:11:42;13.00;79.30
9271;DHT22;4673;53.458;9.940;2022-07-29T04:14:08;13.00;79.30
9271;DHT22;4673;53.458;9.940;2022-07-29T04:16:34;13.00;79.10
9271;DHT22;4673;53.458;9.940;2022-07-29T04:18:59;13.10;79.20
9271;DHT22;4673;53.458;9.940;2022-07-29T04:21:25;13.10;79.10
9271;DHT22;4673;53.458;9.940;2022-07-29T04:23:51;13.30;79.00
9271;DHT22;4673;53.458;9.940;2022-07-29T04:26:17;13.30;78.80
9271;DHT22;4673;53.458;9.940;2022-07-29T04:28:43;13.50;78.50
9271;DHT22;4673;53.458;9.940;2022-07-29T04:31:10;13.50;78.30
9271;DHT22;4673;53.458;9.940;2022-07-29T04:33:35;13.70;77.70
9271;DHT22;4673;53.458;9.940;2022-07-29T04:36:01;13.70;77.50
9271;DHT22;4673;53.458;9.940;2022-07-29T04:38:27;13.80;77.00
9271;DHT22;4673;53.458;9.940;2022-07-29T04:40:52;13.90;76.70
9271;DHT22;4673;53.458;9.940;2022-07-29T04:43:18;14.00;76.40
9271;DHT22;4673;53.458;9.940;2022-07-29T04:45:44;14.00;76.10
9271;DHT22;4673;53.458;9.940;2022-07-29T04:48:09;14.10;75.90
9271;DHT22;4673;53.458;9.940;2022-07-29T04:50:38;14.10;75.60
9271;DHT22;4673;53.458;9.940;2022-07-29T04:53:04;14.20;75.40
9271;DHT22;4673;53.458;9.940;2022-07-29T04:55:29;14.30;75.10
9271;DHT22;4673;53.458;9.940;2022-07-29T04:57:55;14.40;74.50
9271;DHT22;4673;53.458;9.940;2022-07-29T05:00:20;14.40;74.30
9271;DHT22;4673;53.458;9.940;2022-07-29T05:02:48;14.50;74.50
9271;DHT22;4673;53.458;9.940;2022-07-29T05:05:14;14.60;74.20
9271;DHT22;4673;53.458;9.940;2022-07-29T05:07:40;14.70;73.90
9271;DHT22;4673;53.458;9.940;2022-07-29T05:10:06;14.80;73.20
9271;DHT22;4673;53.458;9.940;2022-07-29T05:12:31;14.90;72.70
9271;DHT22;4673;53.458;9.940;2022-07-29T05:14:57;15.10;72.40
9271;DHT22;4673;53.458;9.940;2022-07-29T05:17:23;15.20;71.70
9271;DHT22;4673;53.458;9.940;2022-07-29T05:19:48;15.30;71.20
9271;DHT22;4673;53.458;9.940;2022-07-29T05:22:19;15.40;71.00
9271;DHT22;4673;53.458;9.940;2022-07-29T05:24:45;15.50;70.60
9271;DHT22;4673;53.458;9.940;2022-07-29T05:27:11;15.60;70.10
9271;DHT22;4673;53.458;9.940;2022-07-29T05:29:36;15.70;69.60
9271;DHT22;4673;53.458;9.940;2022-07-29T05:32:03;15.80;69.30
9271;DHT22;4673;53.458;9.940;2022-07-29T05:34:29;15.80;68.90
9271;DHT22;4673;53.458;9.940;2022-07-29T05:36:55;15.90;68.60
9271;DHT22;4673;53.458;9.940;2022-07-29T05:39:20;15.90;68.20
9271;DHT22;4673;53.458;9.940;2022-07-29T05:41:46;16.00;68.10
9271;DHT22;4673;53.458;9.940;2022-07-29T05:44:12;16.30;68.00
9271;DHT22;4673;53.458;9.940;2022-07-29T05:46:39;16.50;66.80
9271;DHT22;4673;53.458;9.940;2022-07-29T05:49:05;16.60;66.20
9271;DHT22;4673;53.458;9.940;2022-07-29T05:51:32;16.80;65.60
9271;DHT22;4673;53.458;9.940;2022-07-29T05:53:58;16.80;64.70
9271;DHT22;4673;53.458;9.940;2022-07-29T05:56:24;17.00;64.30
9271;DHT22;4673;53.458;9.940;2022-07-29T05:58:50;17.00;64.20
9271;DHT22;4673;53.458;9.940;2022-07-29T06:01:16;17.20;64.00
9271;DHT22;4673;53.458;9.940;2022-07-29T06:03:42;17.30;63.40
9271;DHT22;4673;53.458;9.940;2022-07-29T06:06:08;17.40;62.40
9271;DHT22;4673;53.458;9.940;2022-07-29T06:08:34;17.50;62.30
9271;DHT22;4673;53.458;9.940;2022-07-29T06:11:00;17.60;62.30
9271;DHT22;4673;53.458;9.940;2022-07-29T06:13:26;17.70;61.80
9271;DHT22;4673;53.458;9.940;2022-07-29T06:15:51;17.80;61.40
9271;DHT22;4673;53.458;9.940;2022-07-29T06:18:17;17.80;61.30
9271;DHT22;4673;53.458;9.940;2022-07-29T06:20:43;17.80;60.80
9271;DHT22;4673;53.458;9.940;2022-07-29T06:23:08;17.80;61.50
9271;DHT22;4673;53.458;9.940;2022-07-29T06:25:35;17.90;61.50
9271;DHT22;4673;53.458;9.940;2022-07-29T06:28:02;18.00;61.20
9271;DHT22;4673;53.458;9.940;2022-07-29T06:30:28;18.20;60.70
9271;DHT22;4673;53.458;9.940;2022-07-29T06:32:54;18.40;60.40
9271;DHT22;4673;53.458;9.940;2022-07-29T06:35:20;18.50;60.20
9271;DHT22;4673;53.458;9.940;2022-07-29T06:37:46;18.70;59.70
9271;DHT22;4673;53.458;9.940;2022-07-29T06:40:12;18.80;59.40
9271;DHT22;4673;53.458;9.940;2022-07-29T06:42:56;19.00;58.40
9271;DHT22;4673;53.458;9.940;2022-07-29T06:45:22;19.00;57.90
9271;DHT22;4673;53.458;9.940;2022-07-29T06:47:49;19.10;58.10
9271;DHT22;4673;53.458;9.940;2022-07-29T06:50:15;19.00;57.80
9271;DHT22;4673;53.458;9.940;2022-07-29T06:52:41;18.90;57.60
9271;DHT22;4673;53.458;9.940;2022-07-29T06:55:07;18.90;57.80
9271;DHT22;4673;53.458;9.940;2022-07-29T06:57:33;18.70;57.80
9271;DHT22;4673;53.458;9.940;2022-07-29T06:59:59;18.60;58.00
9271;DHT22;4673;53.458;9.940;2022-07-29T07:02:25;18.60;58.40
9271;DHT22;4673;53.458;9.940;2022-07-29T07:04:51;18.50;58.40
9271;DHT22;4673;53.458;9.940;2022-07-29T07:07:17;18.40;58.80
9271;DHT22;4673;53.458;9.940;2022-07-29T07:09:43;18.40;58.90
9271;DHT22;4673;53.458;9.940;2022-07-29T07:12:09;18.40;59.00
9271;DHT22;4673;53.458;9.940;2022-07-29T07:14:34;18.40;59.00
9271;DHT22;4673;53.458;9.940;2022-07-29T07:17:00;18.40;59.10
9271;DHT22;4673;53.458;9.940;2022-07-29T07:19:26;18.50;59.40
9271;DHT22;4673;53.458;9.940;2022-07-29T07:21:55;18.60;59.30
9271;DHT22;4673;53.458;9.940;2022-07-29T07:24:20;18.70;58.60
9271;DHT22;4673;53.458;9.940;2022-07-29T07:26:46;18.70;58.10
9271;DHT22;4673;53.458;9.940;2022-07-29T07:29:12;18.80;58.10
9271;DHT22;4673;53.458;9.940;2022-07-29T07:31:38;19.00;57.80
9271;DHT22;4673;53.458;9.940;2022-07-29T07:34:04;18.90;58.00
9271;DHT22;4673;53.458;9.940;2022-07-29T07:36:30;19.00;58.00
9271;DHT22;4673;53.458;9.940;2022-07-29T07:38:55;19.20;57.10
9271;DHT22;4673;53.458;9.940;2022-07-29T07:41:21;19.40;56.30
9271;DHT22;4673;53.458;9.940;2022-07-29T07:43:47;19.50;55.20
9271;DHT22;4673;53.458;9.940;2022-07-29T07:46:13;19.50;55.80
9271;DHT22;4673;53.458;9.940;2022-07-29T07:48:39;19.60;55.90
9271;DHT22;4673;53.458;9.940;2022-07-29T07:51:04;19.80;55.20
9271;DHT22;4673;53.458;9.940;2022-07-29T07:53:30;19.90;54.70
9271;DHT22;4673;53.458;9.940;2022-07-29T07:55:56;19.90;54.10
9271;DHT22;4673;53.458;9.940;2022-07-29T07:58:21;20.00;54.90
9271;DHT22;4673;53.458;9.940;2022-07-29T08:00:47;20.00;53.60
9271;DHT22;4673;53.458;9.940;2022-07-29T08:03:13;20.00;53.50
9271;DHT22;4673;53.458;9.940;2022-07-29T08:05:40;20.10;53.30
9271;DHT22;4673;53.458;9.940;2022-07-29T08:08:06;20.20;54.00
9271;DHT22;4673;53.458;9.940;2022-07-29T08:10:32;20.40;54.00
9271;DHT22;4673;53.458;9.940;2022-07-29T08:13:16;20.30;52.90
9271;DHT22;4673;53.458;9.940;2022-07-29T08:15:42;20.20;53.50
9271;DHT22;4673;53.458;9.940;2022-07-29T08:18:08;20.20;53.80
9271;DHT22;4673;53.458;9.940;2022-07-29T08:20:35;20.30;53.80
9271;DHT22;4673;53.458;9.940;2022-07-29T08:23:02;20.40;53.30
9271;DHT22;4673;53.458;9.940;2022-07-29T08:25:28;20.50;53.50
9271;DHT22;4673;53.458;9.940;2022-07-29T08:27:53;20.50;53.10
9271;DHT22;4673;53.458;9.940;2022-07-29T08:30:19;20.50;52.90
9271;DHT22;4673;53.458;9.940;2022-07-29T08:32:44;20.50;53.40
9271;DHT22;4673;53.458;9.940;2022-07-29T08:35:10;20.50;52.40
9271;DHT22;4673;53.458;9.940;2022-07-29T08:37:36;20.50;52.00
9271;DHT22;4673;53.458;9.940;2022-07-29T08:40:01;20.60;52.50
9271;DHT22;4673;53.458;9.940;2022-07-29T08:42:27;20.60;52.10
9271;DHT22;4673;53.458;9.940;2022-07-29T08:44:53;20.70;51.70
9271;DHT22;4673;53.458;9.940;2022-07-29T08:47:20;20.70;51.60
9271;DHT22;4673;53.458;9.940;2022-07-29T08:49:45;20.80;51.80
9271;DHT22;4673;53.458;9.940;2022-07-29T08:52:13;20.90;51.60
9271;DHT22;4673;53.458;9.940;2022-07-29T08:54:43;21.00;50.80
9271;DHT22;4673;53.458;9.940;2022-07-29T08:57:12;21.00;50.80
9271;DHT22;4673;53.458;9.940;2022-07-29T08:59:40;20.90;51.00
9271;DHT22;4673;53.458;9.940;2022-07-29T09:02:15;21.00;51.20
9271;DHT22;4673;53.458;9.940;2022-07-29T09:04:44;21.10;50.60
9271;DHT22;4673;53.458;9.940;2022-07-29T09:07:10;21.30;49.80
9271;DHT22;4673;53.458;9.940;2022-07-29T09:09:39;21.50;49.00
9271;DHT22;4673;53.458;9.940;2022-07-29T09:12:05;21.80;48.90
9271;DHT22;4673;53.458;9.940;2022-07-29T09:14:33;22.00;48.40
9271;DHT22;4673;53.458;9.940;2022-07-29T09:16:59;22.30;47.50
9271;DHT22;4673;53.458;9.940;2022-07-29T09:19:31;22.60;46.50
9271;DHT22;4673;53.458;9.940;2022-07-29T09:21:59;22.80;45.40
9271;DHT22;4673;53.458;9.940;2022-07-29T09:27:00;23.00;44.70
9271;DHT22;4673;53.458;9.940;2022-07-29T09:29:27;23.00;44.60
9271;DHT22;4673;53.458;9.940;2022-07-29T09:31:54;23.10;44.60
9271;DHT22;4673;53.458;9.940;2022-07-29T09:34:25;23.30;44.50
9271;DHT22;4673;53.458;9.940;2022-07-29T09:36:52;23.60;43.20
9271;DHT22;4673;53.458;9.940;2022-07-29T09:39:36;23.70;42.70
9271;DHT22;4673;53.458;9.940;2022-07-29T09:42:05;23.90;42.00
9271;DHT22;4673;53.458;9.940;2022-07-29T09:47:07;24.10;41.10
9271;DHT22;4673;53.458;9.940;2022-07-29T09:49:34;24.20;40.70
9271;DHT22;4673;53.458;9.940;2022-07-29T09:52:05;24.40;39.40
9271;DHT22;4673;53.458;9.940;2022-07-29T09:54:31;24.40;38.60
9271;DHT22;4673;53.458;9.940;2022-07-29T09:57:03;24.40;39.00
9271;DHT22;4673;53.458;9.940;2022-07-29T09:59:29;24.40;39.20
9271;DHT22;4673;53.458;9.940;2022-07-29T10:01:56;24.40;38.60
9271;DHT22;4673;53.458;9.940;2022-07-29T10:04:21;24.30;39.00
9271;DHT22;4673;53.458;9.940;2022-07-29T10:07:01;24.40;39.10
9271;DHT22;4673;53.458;9.940;2022-07-29T10:09:27;24.30;39.50
9271;DHT22;4673;53.458;9.940;2022-07-29T10:14:31;23.70;39.10
9271;DHT22;4673;53.458;9.940;2022-07-29T10:16:59;23.60;39.80
9271;DHT22;4673;53.458;9.940;2022-07-29T10:19:30;23.50;41.60
9271;DHT22;4673;53.458;9.940;2022-07-29T10:22:01;23.50;41.70
9271;DHT22;4673;53.458;9.940;2022-07-29T10:24:28;23.80;40.80
9271;DHT22;4673;53.458;9.940;2022-07-29T10:26:56;24.20;39.40
9271;DHT22;4673;53.458;9.940;2022-07-29T10:29:22;24.60;37.60
9271;DHT22;4673;53.458;9.940;2022-07-29T10:31:56;25.00;36.00
9271;DHT22;4673;53.458;9.940;2022-07-29T10:37:56;25.30;32.10
9271;DHT22;4673;53.458;9.940;2022-07-29T10:43:32;25.90;30.00
9271;DHT22;4673;53.458;9.940;2022-07-29T10:46:02;26.10;30.10
9271;DHT22;4673;53.458;9.940;2022-07-29T10:48:28;25.70;29.60
9271;DHT22;4673;53.458;9.940;2022-07-29T10:51:01;25.50;30.80
9271;DHT22;4673;53.458;9.940;2022-07-29T10:53:50;25.50;30.40
9271;DHT22;4673;53.458;9.940;2022-07-29T10:56:34;25.60;29.10
9271;DHT22;4673;53.458;9.940;2022-07-29T10:59:26;25.70;29.40
9271;DHT22;4673;53.458;9.940;2022-07-29T11:01:53;25.50;29.10
9271;DHT22;4673;53.458;9.940;2022-07-29T11:07:10;25.70;29.60
9271;DHT22;4673;53.458;9.940;2022-07-29T11:09:36;25.70;28.80
9271;DHT22;4673;53.458;9.940;2022-07-29T11:12:02;25.80;28.40
9271;DHT22;4673;53.458;9.940;2022-07-29T11:14:59;25.80;28.50
9271;DHT22;4673;53.458;9.940;2022-07-29T11:17:28;25.90;25.70
9271;DHT22;4673;53.458;9.940;2022-07-29T11:22:57;25.90;27.00
9271;DHT22;4673;53.458;9.940;2022-07-29T11:25:24;26.00;25.90
9271;DHT22;4673;53.458;9.940;2022-07-29T11:27:50;26.10;25.70
9271;DHT22;4673;53.458;9.940;2022-07-29T11:30:17;26.20;25.90
9271;DHT22;4673;53.458;9.940;2022-07-29T11:32:43;26.20;25.90
9271;DHT22;4673;53.458;9.940;2022-07-29T11:35:13;25.70;24.30
9271;DHT22;4673;53.458;9.940;2022-07-29T11:37:39;25.60;26.20
9271;DHT22;4673;53.458;9.940;2022-07-29T11:45:00;26.40;24.30
9271;DHT22;4673;53.458;9.940;2022-07-29T11:47:28;26.50;24.10
9271;DHT22;4673;53.458;9.940;2022-07-29T11:49:56;26.60;24.10
9271;DHT22;4673;53.458;9.940;2022-07-29T11:52:45;26.60;23.70
9271;DHT22;4673;53.458;9.940;2022-07-29T11:55:17;26.40;24.50
9271;DHT22;4673;53.458;9.940;2022-07-29T11:57:51;26.30;22.30
9271;DHT22;4673;53.458;9.940;2022-07-29T12:00:30;26.20;23.20
9271;DHT22;4673;53.458;9.940;2022-07-29T12:02:57;26.10;23.30
9271;DHT22;4673;53.458;9.940;2022-07-29T12:05:32;25.90;22.20
9271;DHT22;4673;53.458;9.940;2022-07-29T12:08:16;25.50;24.40
9271;DHT22;4673;53.458;9.940;2022-07-29T12:10:50;25.60;25.20
9271;DHT22;4673;53.458;9.940;2022-07-29T12:13:18;25.70;24.40
9271;DHT22;4673;53.458;9.940;2022-07-29T12:15:57;25.80;24.30
9271;DHT22;4673;53.458;9.940;2022-07-29T12:18:24;25.80;24.30
9271;DHT22;4673;53.458;9.940;2022-07-29T12:20:58;25.80;23.80
9271;DHT22;4673;53.458;9.940;2022-07-29T12:23:25;26.00;24.70
9271;DHT22;4673;53.458;9.940;2022-07-29T12:25:50;26.00;22.00
9271;DHT22;4673;53.458;9.940;2022-07-29T12:28:16;25.90;22.90
9271;DHT22;4673;53.458;9.940;2022-07-29T12:30:48;26.10;23.50
9271;DHT22;4673;53.458;9.940;2022-07-29T12:33:18;26.30;23.40
9271;DHT22;4673;53.458;9.940;2022-07-29T12:35:47;26.60;21.80
9271;DHT22;4673;53.458;9.940;2022-07-29T12:38:13;26.70;21.00
9271;DHT22;4673;53.458;9.940;2022-07-29T12:40:39;26.70;20.30
9271;DHT22;4673;53.458;9.940;2022-07-29T12:43:09;26.70;20.40
9271;DHT22;4673;53.458;9.940;2022-07-29T12:45:36;26.80;18.60
9271;DHT22;4673;53.458;9.940;2022-07-29T12:48:02;26.80;19.40
9271;DHT22;4673;53.458;9.940;2022-07-29T12:50:28;26.80;19.30
9271;DHT22;4673;53.458;9.940;2022-07-29T12:52:54;26.80;19.10
9271;DHT22;4673;53.458;9.940;2022-07-29T12:55:39;26.80;17.90
9271;DHT22;4673;53.458;9.940;2022-07-29T12:58:05;26.50;16.80
9271;DHT22;4673;53.458;9.940;2022-07-29T13:00:31;26.30;18.30
9271;DHT22;4673;53.458;9.940;2022-07-29T13:02:58;26.20;18.70
9271;DHT22;4673;53.458;9.940;2022-07-29T13:05:38;26.20;18.10
9271;DHT22;4673;53.458;9.940;2022-07-29T13:08:11;26.00;20.00
9271;DHT22;4673;53.458;9.940;2022-07-29T13:10:37;26.20;19.30
9271;DHT22;4673;53.458;9.940;2022-07-29T13:13:11;26.30;19.00
9271;DHT22;4673;53.458;9.940;2022-07-29T13:15:38;26.30;18.50
9271;DHT22;4673;53.458;9.940;2022-07-29T13:18:04;26.40;18.40
9271;DHT22;4673;53.458;9.940;2022-07-29T13:20:30;26.40;18.40
9271;DHT22;4673;53.458;9.940;2022-07-29T13:22:58;26.20;18.20
9271;DHT22;4673;53.458;9.940;2022-07-29T13:25:29;26.10;17.70
9271;DHT22;4673;53.458;9.940;2022-07-29T13:27:55;25.90;18.80
9271;DHT22;4673;53.458;9.940;2022-07-29T13:30:22;25.90;19.60
9271;DHT22;4673;53.458;9.940;2022-07-29T13:32:49;25.80;19.60
9271;DHT22;4673;53.458;9.940;2022-07-29T13:35:15;25.80;19.70
9271;DHT22;4673;53.458;9.940;2022-07-29T13:37:41;25.80;18.80
9271;DHT22;4673;53.458;9.940;2022-07-29T13:40:08;25.90;19.60
9271;DHT22;4673;53.458;9.940;2022-07-29T13:42:34;26.10;19.10
9271;DHT22;4673;53.458;9.940;2022-07-29T13:45:00;26.30;18.40
9271;DHT22;4673;53.458;9.940;2022-07-29T13:47:26;26.50;17.30
9271;DHT22;4673;53.458;9.940;2022-07-29T13:49:52;26.70;17.50
9271;DHT22;4673;53.458;9.940;2022-07-29T13:52:19;26.90;17.00
9271;DHT22;4673;53.458;9.940;2022-07-29T13:54:45;27.00;16.90
9271;DHT22;4673;53.458;9.940;2022-07-29T13:57:11;27.10;16.00
9271;DHT22;4673;53.458;9.940;2022-07-29T13:59:37;27.20;15.00
9271;DHT22;4673;53.458;9.940;2022-07-29T14:02:03;27.30;14.40
9271;DHT22;4673;53.458;9.940;2022-07-29T14:04:28;27.40;14.50
9271;DHT22;4673;53.458;9.940;2022-07-29T14:06:54;27.60;13.70
9271;DHT22;4673;53.458;9.940;2022-07-29T14:09:20;27.70;12.80
9271;DHT22;4673;53.458;9.940;2022-07-29T14:11:45;27.60;12.00
9271;DHT22;4673;53.458;9.940;2022-07-29T14:14:13;27.70;12.60
9271;DHT22;4673;53.458;9.940;2022-07-29T14:16:38;27.70;11.50
9271;DHT22;4673;53.458;9.940;2022-07-29T14:19:04;27.60;12.30
9271;DHT22;4673;53.458;9.940;2022-07-29T14:21:30;27.50;11.90
9271;DHT22;4673;53.458;9.940;2022-07-29T14:23:55;27.30;12.80
9271;DHT22;4673;53.458;9.940;2022-07-29T14:26:21;27.30;12.20
9271;DHT22;4673;53.458;9.940;2022-07-29T14:28:48;27.20;12.60
9271;DHT22;4673;53.458;9.940;2022-07-29T14:31:14;27.20;13.50
9271;DHT22;4673;53.458;9.940;2022-07-29T14:33:40;27.20;13.30
9271;DHT22;4673;53.458;9.940;2022-07-29T14:36:06;27.30;15.10
9271;DHT22;4673;53.458;9.940;2022-07-29T14:38:32;26.90;18.00
9271;DHT22;4673;53.458;9.940;2022-07-29T14:40:57;26.40;23.90
9271;DHT22;4673;53.458;9.940;2022-07-29T14:43:23;25.90;26.70
9271;DHT22;4673;53.458;9.940;2022-07-29T14:45:49;25.50;29.20
9271;DHT22;4673;53.458;9.940;2022-07-29T14:48:14;25.40;29.80
9271;DHT22;4673;53.458;9.940;2022-07-29T14:50:40;25.50;30.40
9271;DHT22;4673;53.458;9.940;2022-07-29T14:53:06;25.40;31.10
9271;DHT22;4673;53.458;9.940;2022-07-29T14:55:32;25.30;31.50
9271;DHT22;4673;53.458;9.940;2022-07-29T14:57:57;25.20;31.10
9271;DHT22;4673;53.458;9.940;2022-07-29T15:00:24;25.10;32.30
9271;DHT22;4673;53.458;9.940;2022-07-29T15:02:50;25.10;33.40
9271;DHT22;4673;53.458;9.940;2022-07-29T15:05:16;25.10;32.60
9271;DHT22;4673;53.458;9.940;2022-07-29T15:07:42;24.90;32.90
9271;DHT22;4673;53.458;9.940;2022-07-29T15:10:08;24.90;32.90
9271;DHT22;4673;53.458;9.940;2022-07-29T15:12:34;24.80;33.70
9271;DHT22;4673;53.458;9.940;2022-07-29T15:15:00;24.90;33.80
9271;DHT22;4673;53.458;9.940;2022-07-29T15:17:25;24.90;33.30
9271;DHT22;4673;53.458;9.940;2022-07-29T15:19:51;24.90;33.00
9271;DHT22;4673;53.458;9.940;2022-07-29T15:22:17;24.80;33.00
9271;DHT22;4673;53.458;9.940;2022-07-29T15:24:43;24.70;34.50
9271;DHT22;4673;53.458;9.940;2022-07-29T15:27:09;24.70;34.50
9271;DHT22;4673;53.458;9.940;2022-07-29T15:29:40;24.70;35.10
9271;DHT22;4673;53.458;9.940;2022-07-29T15:32:06;24.70;34.70
9271;DHT22;4673;53.458;9.940;2022-07-29T15:34:32;24.60;33.90
9271;DHT22;4673;53.458;9.940;2022-07-29T15:36:57;24.80;34.50
9271;DHT22;4673;53.458;9.940;2022-07-29T15:39:23;25.00;33.90
9271;DHT22;4673;53.458;9.940;2022-07-29T15:41:49;25.00;34.60
9271;DHT22;4673;53.458;9.940;2022-07-29T15:44:15;25.10;34.70
9271;DHT22;4673;53.458;9.940;2022-07-29T15:46:41;25.20;34.10
9271;DHT22;4673;53.458;9.940;2022-07-29T15:49:25;25.30;32.60
9271;DHT22;4673;53.458;9.940;2022-07-29T15:51:59;25.40;32.20
9271;DHT22;4673;53.458;9.940;2022-07-29T15:54:26;25.40;31.70
9271;DHT22;4673;53.458;9.940;2022-07-29T15:56:53;25.30;32.10
9271;DHT22;4673;53.458;9.940;2022-07-29T15:59:19;25.30;32.10
9271;DHT22;4673;53.458;9.940;2022-07-29T16:01:45;25.30;32.60
9271;DHT22;4673;53.458;9.940;2022-07-29T16:04:11;25.40;32.50
9271;DHT22;4673;53.458;9.940;2022-07-29T16:06:36;25.10;33.30
9271;DHT22;4673;53.458;9.940;2022-07-29T16:09:02;25.10;34.20
9271;DHT22;4673;53.458;9.940;2022-07-29T16:11:28;25.00;34.20
9271;DHT22;4673;53.458;9.940;2022-07-29T16:13:53;25.00;33.60
9271;DHT22;4673;53.458;9.940;2022-07-29T16:16:19;24.80;33.80
9271;DHT22;4673;53.458;9.940;2022-07-29T16:18:45;24.80;34.70
9271;DHT22;4673;53.458;9.940;2022-07-29T16:21:11;24.70;34.30
9271;DHT22;4673;53.458;9.940;2022-07-29T16:23:38;24.70;35.30
9271;DHT22;4673;53.458;9.940;2022-07-29T16:26:04;24.60;35.90
9271;DHT22;4673;53.458;9.940;2022-07-29T16:28:30;24.50;36.30
9271;DHT22;4673;53.458;9.940;2022-07-29T16:30:56;24.40;37.00
9271;DHT22;4673;53.458;9.940;2022-07-29T16:33:22;24.50;37.00
9271;DHT22;4673;53.458;9.940;2022-07-29T16:35:48;24.50;36.60
9271;DHT22;4673;53.458;9.940;2022-07-29T16:38:14;24.40;37.50
9271;DHT22;4673;53.458;9.940;2022-07-29T16:40:40;24.20;38.20
9271;DHT22;4673;53.458;9.940;2022-07-29T16:43:06;24.10;39.40
9271;DHT22;4673;53.458;9.940;2022-07-29T16:45:32;24.10;40.00
9271;DHT22;4673;53.458;9.940;2022-07-29T16:47:58;23.90;40.70